createdAt,value
2018-03-31T00:00:33.017Z,61.00
2018-03-31T00:05:23.854Z,60.90
2018-03-31T00:10:14.698Z,61.00
2018-03-31T00:15:06.261Z,61.00
2018-03-31T00:19:57.086Z,61.60
2018-03-31T00:24:47.901Z,61.10
2018-03-31T00:29:38.716Z,61.10
2018-03-31T00:34:29.715Z,61.20
2018-03-31T00:39:21.274Z,61.30
2018-03-31T00:44:12.833Z,61.20
2018-03-31T00:49:03.673Z,61.20
2018-03-31T00:53:54.501Z,61.30
2018-03-31T00:58:45.321Z,61.30
2018-03-31T01:03:36.151Z,61.30
2018-03-31T01:08:26.971Z,61.30
2018-03-31T01:13:17.797Z,61.30
2018-03-31T01:18:08.640Z,61.30
2018-03-31T01:22:59.474Z,61.20
2018-03-31T01:27:50.301Z,61.30
2018-03-31T01:32:41.122Z,61.20
2018-03-31T01:37:31.943Z,61.20
2018-03-31T01:42:23.520Z,61.90
2018-03-31T01:47:14.333Z,61.20
2018-03-31T01:52:05.897Z,61.30
2018-03-31T01:56:56.723Z,61.30
2018-03-31T02:01:47.557Z,61.30
2018-03-31T02:06:38.388Z,61.30
2018-03-31T02:11:29.201Z,61.30
2018-03-31T02:16:20.027Z,61.50
2018-03-31T02:21:10.853Z,61.40
2018-03-31T02:26:01.683Z,61.60
2018-03-31T02:30:52.507Z,61.60
2018-03-31T02:35:43.325Z,61.60
2018-03-31T02:40:34.159Z,61.50
2018-03-31T02:45:24.988Z,61.60
2018-03-31T02:50:15.831Z,61.60
2018-03-31T02:55:06.641Z,61.60
2018-03-31T02:59:57.477Z,61.50
2018-03-31T03:04:48.289Z,61.60
2018-03-31T03:09:39.120Z,61.70
2018-03-31T03:14:29.953Z,61.70
2018-03-31T03:19:21.513Z,61.80
2018-03-31T03:29:30.131Z,61.70
2018-03-31T03:34:20.959Z,61.80
2018-03-31T03:39:11.783Z,61.80
2018-03-31T03:44:02.603Z,61.80
2018-03-31T03:48:53.421Z,61.80
2018-03-31T03:53:44.232Z,61.90
2018-03-31T03:58:35.049Z,61.90
2018-03-31T04:03:25.865Z,62.10
2018-03-31T04:08:17.417Z,62.10
2018-03-31T04:13:08.263Z,62.10
2018-03-31T04:17:59.095Z,62.20
2018-03-31T04:22:49.913Z,62.40
2018-03-31T04:27:40.730Z,62.40
2018-03-31T04:32:31.550Z,62.30
2018-03-31T04:37:23.105Z,62.50
2018-03-31T04:42:13.927Z,62.40
2018-03-31T04:47:04.752Z,62.60
2018-03-31T04:51:55.578Z,62.40
2018-03-31T04:56:46.392Z,62.40
2018-03-31T05:01:37.214Z,62.40
2018-03-31T05:06:28.773Z,62.70
2018-03-31T05:11:19.616Z,62.70
2018-03-31T05:16:10.429Z,62.60
2018-03-31T05:21:01.250Z,62.60
2018-03-31T05:25:52.067Z,62.80
2018-03-31T05:30:42.896Z,62.80
2018-03-31T05:35:33.731Z,62.60
2018-03-31T05:40:24.549Z,62.90
2018-03-31T05:45:15.424Z,62.90
2018-03-31T05:50:06.358Z,62.80
2018-03-31T05:54:57.183Z,63.10
2018-03-31T05:59:48.021Z,63.00
2018-03-31T06:04:38.855Z,63.00
2018-03-31T06:09:29.678Z,63.00
2018-03-31T06:14:20.510Z,63.00
2018-03-31T06:19:12.079Z,62.80
2018-03-31T06:24:02.910Z,62.80
2018-03-31T06:28:53.721Z,62.90
2018-03-31T06:33:45.346Z,63.50
2018-03-31T06:38:36.179Z,63.40
2018-03-31T06:43:27.750Z,63.50
2018-03-31T06:48:18.566Z,63.40
2018-03-31T06:53:10.140Z,63.60
2018-03-31T06:58:00.967Z,63.60
2018-03-31T07:02:51.785Z,63.60
2018-03-31T07:07:42.597Z,63.70
2018-03-31T07:12:33.474Z,64.00
2018-03-31T07:17:24.293Z,63.70
2018-03-31T07:22:15.141Z,63.70
2018-03-31T07:27:06.717Z,63.80
2018-03-31T07:31:57.552Z,63.70
2018-03-31T07:36:48.373Z,63.80
2018-03-31T07:41:39.193Z,63.70
2018-03-31T07:46:30.010Z,63.70
2018-03-31T07:51:21.565Z,63.90
2018-03-31T07:56:12.377Z,63.80
2018-03-31T08:01:03.966Z,63.80
2018-03-31T08:05:54.793Z,63.80
2018-03-31T08:10:45.620Z,63.90
2018-03-31T08:15:36.457Z,64.00
2018-03-31T08:20:27.278Z,64.00
2018-03-31T08:25:18.109Z,64.20
2018-03-31T08:30:08.930Z,64.30
2018-03-31T08:34:59.777Z,64.30
2018-03-31T08:39:50.598Z,64.20
2018-03-31T08:44:41.429Z,64.10
2018-03-31T08:49:32.266Z,65.20
2018-03-31T08:54:23.086Z,68.60
2018-03-31T08:59:14.654Z,67.80
2018-03-31T09:04:05.487Z,67.80
2018-03-31T09:08:56.444Z,67.10
2018-03-31T09:13:48.043Z,66.80
2018-03-31T09:18:38.896Z,66.20
2018-03-31T09:23:29.733Z,66.20
2018-03-31T09:28:20.581Z,65.90
2018-03-31T09:33:11.411Z,65.60
2018-03-31T09:38:02.247Z,65.60
2018-03-31T09:42:53.077Z,65.60
2018-03-31T09:47:43.931Z,65.30
2018-03-31T09:52:34.764Z,65.40
2018-03-31T09:57:25.592Z,65.40
2018-03-31T10:02:16.423Z,65.30
2018-03-31T10:07:07.251Z,65.20
2018-03-31T10:11:58.073Z,65.40
2018-03-31T10:16:48.915Z,65.40
2018-03-31T10:21:39.747Z,65.20
2018-03-31T10:26:30.575Z,65.20
2018-03-31T10:31:21.424Z,65.00
2018-03-31T10:36:12.258Z,65.30
2018-03-31T10:41:03.092Z,64.80
2018-03-31T10:45:53.931Z,64.90
2018-03-31T10:50:44.767Z,64.90
2018-03-31T10:55:36.332Z,64.80
2018-03-31T11:00:30.540Z,64.60
2018-03-31T11:05:21.481Z,64.60
2018-03-31T11:10:13.055Z,64.70
2018-03-31T11:15:03.886Z,64.60
2018-03-31T11:19:54.719Z,64.70
2018-03-31T11:24:45.552Z,64.60
2018-03-31T11:29:36.369Z,64.40
2018-03-31T11:34:27.191Z,64.40
2018-03-31T11:39:18.019Z,64.40
2018-03-31T11:44:08.850Z,64.30
2018-03-31T11:48:59.719Z,64.40
2018-03-31T11:53:50.621Z,64.50
2018-03-31T11:58:41.451Z,64.80
2018-03-31T12:03:32.288Z,65.00
2018-03-31T12:08:23.109Z,65.00
2018-03-31T12:13:13.938Z,65.00
2018-03-31T12:18:04.750Z,64.90
2018-03-31T12:22:55.675Z,64.80
2018-03-31T12:27:47.239Z,64.90
2018-03-31T12:32:38.058Z,64.80
2018-03-31T12:37:29.643Z,64.90
2018-03-31T12:42:20.461Z,64.90
2018-03-31T12:47:11.290Z,64.90
2018-03-31T12:52:02.175Z,64.70
2018-03-31T12:56:53.105Z,64.60
2018-03-31T13:01:44.031Z,64.60
2018-03-31T13:06:34.968Z,64.90
2018-03-31T13:11:26.607Z,64.70
2018-03-31T13:16:17.475Z,64.20
2018-03-31T13:21:08.342Z,63.70
2018-03-31T13:25:59.306Z,64.20
2018-03-31T13:30:50.933Z,64.20
2018-03-31T13:35:41.876Z,64.20
2018-03-31T13:40:32.693Z,64.00
2018-03-31T13:45:23.533Z,64.00
2018-03-31T13:50:14.382Z,63.90
2018-03-31T13:55:05.218Z,64.00
2018-03-31T13:59:56.038Z,64.10
2018-03-31T14:04:46.878Z,64.30
2018-03-31T14:09:37.712Z,64.40
2018-03-31T14:14:29.303Z,64.00
2018-03-31T14:19:20.169Z,63.90
2018-03-31T14:24:11.094Z,63.90
2018-03-31T14:29:02.087Z,63.80
2018-03-31T14:33:52.904Z,63.70
2018-03-31T14:38:43.796Z,63.80
2018-03-31T14:43:34.613Z,63.80
2018-03-31T14:48:25.455Z,63.80
2018-03-31T14:53:16.282Z,63.90
2018-03-31T14:58:07.114Z,64.00
2018-03-31T15:02:58.043Z,63.90
2018-03-31T15:07:48.870Z,63.80
2018-03-31T15:12:39.694Z,63.80
2018-03-31T15:17:30.524Z,63.60
2018-03-31T15:22:21.361Z,63.50
2018-03-31T15:27:12.205Z,63.40
2018-03-31T15:32:03.025Z,63.50
2018-03-31T15:36:53.852Z,63.60
2018-03-31T15:41:44.687Z,63.60
2018-03-31T15:46:35.547Z,63.60
2018-03-31T15:51:26.353Z,63.60
2018-03-31T15:56:17.922Z,63.80
2018-03-31T16:01:09.494Z,64.00
2018-03-31T16:06:00.326Z,63.90
2018-03-31T16:10:51.154Z,64.00
2018-03-31T16:15:41.967Z,64.20
2018-03-31T16:20:32.805Z,64.30
2018-03-31T16:25:23.623Z,64.30
2018-03-31T16:30:14.438Z,64.40
2018-03-31T16:35:05.261Z,64.80
2018-03-31T16:39:56.091Z,64.70
2018-03-31T16:44:46.905Z,65.00
2018-03-31T16:49:37.732Z,65.10
2018-03-31T16:54:28.548Z,65.10
2018-03-31T16:59:19.362Z,65.00
2018-03-31T17:04:10.949Z,65.10
2018-03-31T17:09:01.746Z,65.10
2018-03-31T17:13:53.315Z,65.00
2018-03-31T17:18:44.143Z,65.00
2018-03-31T17:23:35.167Z,65.10
2018-03-31T17:28:25.995Z,65.10
2018-03-31T17:33:17.571Z,65.30
2018-03-31T17:38:08.390Z,65.20
2018-03-31T17:42:59.221Z,65.10
2018-03-31T17:47:50.072Z,65.10
2018-03-31T17:52:40.899Z,65.10
2018-03-31T17:57:31.734Z,65.20
2018-03-31T18:02:22.553Z,65.00
2018-03-31T18:07:13.387Z,65.10
2018-03-31T18:12:04.284Z,65.10
2018-03-31T18:16:55.094Z,65.10
2018-03-31T18:21:46.747Z,65.20
2018-03-31T18:26:37.494Z,65.10
2018-03-31T18:31:28.327Z,65.10
2018-03-31T18:36:19.141Z,65.10
2018-03-31T18:41:10.715Z,65.00
2018-03-31T18:46:01.542Z,65.00
2018-03-31T18:50:52.424Z,65.60
2018-03-31T18:55:43.271Z,64.90
2018-03-31T19:00:34.829Z,65.20
2018-03-31T19:05:26.407Z,65.30
2018-03-31T19:10:17.294Z,65.30
2018-03-31T19:15:08.860Z,65.40
2018-03-31T19:20:00.427Z,65.60
2018-03-31T19:29:43.548Z,65.40
2018-03-31T19:34:35.184Z,65.60
2018-03-31T19:39:33.042Z,65.90
2018-03-31T19:44:23.817Z,66.40
2018-03-31T19:49:14.646Z,65.90
2018-03-31T19:54:05.475Z,65.80
2018-03-31T19:58:56.308Z,65.80
2018-03-31T20:03:47.118Z,65.80
2018-03-31T20:08:38.678Z,65.80
2018-03-31T20:13:29.514Z,65.80
2018-03-31T20:18:20.344Z,65.70
2018-03-31T20:23:11.184Z,65.70
2018-03-31T20:28:02.011Z,65.50
2018-03-31T20:32:52.839Z,65.70
2018-03-31T20:37:43.677Z,65.50
2018-03-31T20:42:34.499Z,65.70
2018-03-31T20:47:25.313Z,65.60
2018-03-31T20:52:16.888Z,65.70
2018-03-31T20:57:07.719Z,65.70
2018-03-31T21:01:58.559Z,65.80
2018-03-31T21:06:49.379Z,65.60
2018-03-31T21:11:40.212Z,65.50
2018-03-31T21:16:31.025Z,65.70
2018-03-31T21:21:21.849Z,65.60
2018-03-31T21:26:12.741Z,65.70
2018-03-31T21:31:03.571Z,65.70
2018-03-31T21:35:54.398Z,65.50
2018-03-31T21:40:45.259Z,65.80
2018-03-31T21:45:36.104Z,65.80
2018-03-31T21:50:26.922Z,66.00
2018-03-31T21:55:17.742Z,66.00
2018-03-31T22:00:09.353Z,66.00
2018-03-31T22:05:00.312Z,65.90
2018-03-31T22:09:51.946Z,66.00
2018-03-31T22:14:48.889Z,66.00
2018-03-31T22:19:39.917Z,66.00
2018-03-31T22:24:30.799Z,65.90
2018-03-31T22:29:21.635Z,65.90
2018-03-31T22:34:12.593Z,66.00
2018-03-31T22:39:03.413Z,66.20
2018-03-31T22:43:54.989Z,66.10
2018-03-31T22:48:45.812Z,66.10
2018-03-31T22:53:36.639Z,65.90
2018-03-31T22:58:27.457Z,66.10
2018-03-31T23:03:18.279Z,66.00
2018-03-31T23:08:09.115Z,66.00
2018-03-31T23:12:59.937Z,65.90
2018-03-31T23:17:50.758Z,66.10
2018-03-31T23:22:41.589Z,66.10
2018-03-31T23:27:32.418Z,66.00
2018-03-31T23:32:23.291Z,66.20
2018-03-31T23:37:14.877Z,66.00
2018-03-31T23:42:05.701Z,66.00
2018-03-31T23:46:56.541Z,66.10
2018-03-31T23:51:47.436Z,66.10
2018-03-31T23:56:38.993Z,65.90
